TVF21D LFPO-LKPR
Flight info
| Callsign | TVF21D |
|---|---|
| Flight time | 1h 15m |
| Altitude | 37000 |
| Route | RANUX DCT VALEK DCT LIPNI DCT LIMGO DCT BOMBI DCT BOREP DCT TONSU Z35 ODOMO DCT LOMKI |
| Aircraft | A320/M-SDE3FGHIRWY/LB1 |
Departure
| Time | 2026-05-06 17:12 |
|---|---|
| Airport | Paris-Orly Airport (LFPO) |
Arrival
| Time | 2026-05-06 18:27 |
|---|---|
| Airport | Václav Havel Airport Prague (LKPR) |
| Time | Latitude | Longitude | Altitude | Speed | Heading |
|---|---|---|---|---|---|
| 2026-05-06 17:01 | 48.72533 | 2.36828 | 293 ft | 0 kts | 253° |
| 2026-05-06 17:03 | 48.72519 | 2.36757 | 291 ft | 13 kts | 254° |
| 2026-05-06 17:03 | 48.72491 | 2.36604 | 291 ft | 17 kts | 252° |
| 2026-05-06 17:03 | 48.72459 | 2.36427 | 294 ft | 18 kts | 252° |
| 2026-05-06 17:03 | 48.72424 | 2.36234 | 291 ft | 20 kts | 254° |
| 2026-05-06 17:04 | 48.72387 | 2.36035 | 294 ft | 14 kts | 253° |
| 2026-05-06 17:04 | 48.72363 | 2.35908 | 290 ft | 9 kts | 254° |
| 2026-05-06 17:04 | 48.72347 | 2.35820 | 290 ft | 8 kts | 255° |
| 2026-05-06 17:04 | 48.72329 | 2.35702 | 305 ft | 13 kts | 270° |
| 2026-05-06 17:05 | 48.72396 | 2.35625 | 302 ft | 14 kts | 346° |
| 2026-05-06 17:05 | 48.72479 | 2.35590 | 302 ft | 12 kts | 343° |
| 2026-05-06 17:05 | 48.72562 | 2.35554 | 302 ft | 13 kts | 345° |
| 2026-05-06 17:05 | 48.72639 | 2.35522 | 305 ft | 8 kts | 345° |
| 2026-05-06 17:06 | 48.72696 | 2.35498 | 305 ft | 10 kts | 345° |
| 2026-05-06 17:06 | 48.72768 | 2.35468 | 304 ft | 12 kts | 345° |
| 2026-05-06 17:06 | 48.72852 | 2.35434 | 302 ft | 13 kts | 345° |
| 2026-05-06 17:06 | 48.72924 | 2.35352 | 304 ft | 13 kts | 358° |
| 2026-05-06 17:07 | 48.73014 | 2.35390 | 305 ft | 14 kts | 19° |
| 2026-05-06 17:07 | 48.73115 | 2.35439 | 304 ft | 16 kts | 17° |
| 2026-05-06 17:07 | 48.73208 | 2.35471 | 302 ft | 0 kts | 358° |
| 2026-05-06 17:10 | 48.73223 | 2.35466 | 303 ft | 8 kts | 345° |
| 2026-05-06 17:10 | 48.73287 | 2.35388 | 303 ft | 10 kts | 328° |
| 2026-05-06 17:10 | 48.73293 | 2.35354 | 303 ft | 0 kts | 245° |
| 2026-05-06 17:11 | 48.73291 | 2.35347 | 303 ft | 8 kts | 244° |
| 2026-05-06 17:11 | 48.73165 | 2.34981 | 303 ft | 76 kts | 243° |
| 2026-05-06 17:11 | 48.72805 | 2.33977 | 305 ft | 137 kts | 241° |
| 2026-05-06 17:12 | 48.72311 | 2.32517 | 578 ft | 162 kts | 246° |
| 2026-05-06 17:12 | 48.71766 | 2.31002 | 1304 ft | 165 kts | 242° |
| 2026-05-06 17:12 | 48.71141 | 2.29513 | 2138 ft | 172 kts | 240° |
| 2026-05-06 17:12 | 48.70445 | 2.27902 | 2646 ft | 194 kts | 239° |
| 2026-05-06 17:13 | 48.69631 | 2.26127 | 3132 ft | 219 kts | 228° |
| 2026-05-06 17:13 | 48.68320 | 2.24976 | 4024 ft | 223 kts | 191° |
| 2026-05-06 17:13 | 48.66779 | 2.24852 | 5110 ft | 223 kts | 167° |
| 2026-05-06 17:13 | 48.65395 | 2.25857 | 6077 ft | 224 kts | 137° |
| 2026-05-06 17:14 | 48.64233 | 2.27436 | 6950 ft | 228 kts | 142° |
| 2026-05-06 17:14 | 48.62859 | 2.28673 | 7771 ft | 230 kts | 151° |
| 2026-05-06 17:14 | 48.61423 | 2.29771 | 8561 ft | 232 kts | 152° |
| 2026-05-06 17:14 | 48.59950 | 2.30807 | 9364 ft | 235 kts | 155° |
| 2026-05-06 17:15 | 48.58413 | 2.31690 | 10108 ft | 238 kts | 161° |
| 2026-05-06 17:15 | 48.56752 | 2.32485 | 10430 ft | 262 kts | 162° |
| 2026-05-06 17:15 | 48.54943 | 2.33401 | 10743 ft | 286 kts | 155° |
| 2026-05-06 17:15 | 48.53332 | 2.35225 | 11315 ft | 296 kts | 129° |
| 2026-05-06 17:16 | 48.52294 | 2.37923 | 12062 ft | 301 kts | 115° |
| 2026-05-06 17:16 | 48.51496 | 2.40874 | 12836 ft | 306 kts | 112° |
| 2026-05-06 17:16 | 48.50756 | 2.43904 | 13610 ft | 311 kts | 108° |
| 2026-05-06 17:17 | 48.51276 | 2.50884 | 14008 ft | 361 kts | 62° |
| 2026-05-06 17:17 | 48.52519 | 2.54309 | 14113 ft | 383 kts | 61° |
| 2026-05-06 17:17 | 48.53852 | 2.57912 | 14247 ft | 402 kts | 61° |
| 2026-05-06 17:17 | 48.55244 | 2.61675 | 14434 ft | 417 kts | 61° |
| 2026-05-06 17:18 | 48.56666 | 2.65543 | 14890 ft | 423 kts | 62° |
| 2026-05-06 17:18 | 48.58092 | 2.69451 | 15418 ft | 427 kts | 62° |
| 2026-05-06 17:18 | 48.59520 | 2.73393 | 15986 ft | 429 kts | 62° |
| 2026-05-06 17:18 | 48.60954 | 2.77364 | 16535 ft | 432 kts | 62° |
| 2026-05-06 17:19 | 48.62394 | 2.81359 | 17081 ft | 435 kts | 62° |
| 2026-05-06 17:19 | 48.63841 | 2.85388 | 17626 ft | 437 kts | 62° |
| 2026-05-06 17:19 | 48.65291 | 2.89441 | 18180 ft | 439 kts | 63° |
| 2026-05-06 17:19 | 48.66748 | 2.93513 | 18635 ft | 441 kts | 62° |
| 2026-05-06 17:20 | 48.68212 | 2.97600 | 19107 ft | 443 kts | 62° |
| 2026-05-06 17:20 | 48.69679 | 3.01702 | 19556 ft | 445 kts | 62° |
| 2026-05-06 17:20 | 48.71158 | 3.05840 | 19994 ft | 447 kts | 62° |
| 2026-05-06 17:20 | 48.72638 | 3.09988 | 20431 ft | 448 kts | 63° |
| 2026-05-06 17:21 | 48.74120 | 3.14153 | 20863 ft | 450 kts | 63° |
| 2026-05-06 17:21 | 48.75604 | 3.18326 | 21279 ft | 452 kts | 63° |
| 2026-05-06 17:21 | 48.77100 | 3.22540 | 21672 ft | 454 kts | 63° |
| 2026-05-06 17:21 | 48.78599 | 3.26775 | 22065 ft | 456 kts | 63° |
| 2026-05-06 17:22 | 48.80099 | 3.31025 | 22443 ft | 458 kts | 63° |
| 2026-05-06 17:22 | 48.81604 | 3.35302 | 22806 ft | 460 kts | 63° |
| 2026-05-06 17:22 | 48.83085 | 3.39549 | 23162 ft | 462 kts | 63° |
| 2026-05-06 17:22 | 48.84547 | 3.43910 | 23503 ft | 464 kts | 64° |
| 2026-05-06 17:23 | 48.85979 | 3.48328 | 23796 ft | 466 kts | 65° |
| 2026-05-06 17:23 | 48.87392 | 3.52763 | 24090 ft | 468 kts | 65° |
| 2026-05-06 17:23 | 48.88805 | 3.57232 | 24372 ft | 470 kts | 65° |
| 2026-05-06 17:23 | 48.90223 | 3.61714 | 24648 ft | 471 kts | 65° |
| 2026-05-06 17:24 | 48.91653 | 3.66203 | 24949 ft | 472 kts | 65° |
| 2026-05-06 17:24 | 48.93097 | 3.70689 | 25353 ft | 471 kts | 65° |
| 2026-05-06 17:24 | 48.94535 | 3.75146 | 25770 ft | 469 kts | 65° |
| 2026-05-06 17:24 | 48.95971 | 3.79608 | 26213 ft | 468 kts | 65° |
| 2026-05-06 17:25 | 48.97396 | 3.84047 | 26668 ft | 466 kts | 65° |
| 2026-05-06 17:25 | 48.98811 | 3.88472 | 27102 ft | 465 kts | 65° |
| 2026-05-06 17:25 | 49.00221 | 3.92892 | 27531 ft | 463 kts | 65° |
| 2026-05-06 17:25 | 49.01626 | 3.97310 | 27954 ft | 462 kts | 65° |
| 2026-05-06 17:26 | 49.03025 | 4.01715 | 28408 ft | 461 kts | 65° |
| 2026-05-06 17:26 | 49.04419 | 4.06102 | 28869 ft | 459 kts | 65° |
| 2026-05-06 17:26 | 49.05808 | 4.10481 | 29318 ft | 458 kts | 65° |
| 2026-05-06 17:26 | 49.07190 | 4.14845 | 29772 ft | 456 kts | 65° |
| 2026-05-06 17:27 | 49.08564 | 4.19198 | 30173 ft | 455 kts | 65° |
| 2026-05-06 17:27 | 49.09936 | 4.23549 | 30546 ft | 454 kts | 66° |
| 2026-05-06 17:27 | 49.11298 | 4.27888 | 30903 ft | 454 kts | 66° |
| 2026-05-06 17:27 | 49.12657 | 4.32230 | 31236 ft | 453 kts | 66° |
| 2026-05-06 17:28 | 49.14011 | 4.36576 | 31574 ft | 453 kts | 66° |
| 2026-05-06 17:28 | 49.15302 | 4.40955 | 31915 ft | 452 kts | 68° |
| 2026-05-06 17:28 | 49.16523 | 4.45384 | 32254 ft | 452 kts | 69° |
| 2026-05-06 17:28 | 49.17700 | 4.49832 | 32591 ft | 451 kts | 70° |
| 2026-05-06 17:29 | 49.18857 | 4.54283 | 32939 ft | 450 kts | 70° |
| 2026-05-06 17:29 | 49.20017 | 4.58730 | 33285 ft | 450 kts | 70° |
| 2026-05-06 17:29 | 49.21191 | 4.63170 | 33641 ft | 450 kts | 70° |
| 2026-05-06 17:29 | 49.22365 | 4.67543 | 33969 ft | 450 kts | 69° |
| 2026-05-06 17:30 | 49.23559 | 4.71954 | 34237 ft | 450 kts | 69° |
| 2026-05-06 17:30 | 49.24760 | 4.76389 | 34480 ft | 451 kts | 69° |
| 2026-05-06 17:30 | 49.25972 | 4.80886 | 34712 ft | 452 kts | 69° |
| 2026-05-06 17:30 | 49.27155 | 4.85297 | 34925 ft | 454 kts | 69° |
| 2026-05-06 17:31 | 49.27964 | 4.88320 | 35075 ft | 454 kts | 70° |
| 2026-05-06 17:31 | 49.29551 | 4.94263 | 35361 ft | 456 kts | 70° |
| 2026-05-06 17:31 | 49.30750 | 4.98761 | 35566 ft | 457 kts | 69° |
| 2026-05-06 17:31 | 49.31949 | 5.03281 | 35772 ft | 458 kts | 70° |
| 2026-05-06 17:32 | 49.33143 | 5.07813 | 35977 ft | 459 kts | 70° |
| 2026-05-06 17:32 | 49.34340 | 5.12355 | 36179 ft | 460 kts | 70° |
| 2026-05-06 17:32 | 49.35152 | 5.15435 | 36316 ft | 461 kts | 70° |
| 2026-05-06 17:32 | 49.36354 | 5.19995 | 36512 ft | 462 kts | 70° |
| 2026-05-06 17:33 | 49.37543 | 5.24509 | 36701 ft | 463 kts | 70° |
| 2026-05-06 17:33 | 49.38763 | 5.29153 | 36844 ft | 464 kts | 70° |
| 2026-05-06 17:33 | 49.39970 | 5.33763 | 36873 ft | 467 kts | 70° |
| 2026-05-06 17:34 | 49.42391 | 5.43033 | 36869 ft | 468 kts | 70° |
| 2026-05-06 17:34 | 49.44793 | 5.52269 | 36861 ft | 469 kts | 70° |
| 2026-05-06 17:35 | 49.47202 | 5.61584 | 36864 ft | 469 kts | 70° |
| 2026-05-06 17:35 | 49.49612 | 5.70968 | 36865 ft | 469 kts | 70° |
| 2026-05-06 17:36 | 49.53148 | 5.84963 | 36860 ft | 469 kts | 71° |
| 2026-05-06 17:36 | 49.55436 | 5.94380 | 36857 ft | 469 kts | 71° |
| 2026-05-06 17:37 | 49.57743 | 6.03781 | 36861 ft | 469 kts | 71° |
| 2026-05-06 17:37 | 49.60066 | 6.13192 | 36860 ft | 470 kts | 71° |
| 2026-05-06 17:38 | 49.62377 | 6.22613 | 36859 ft | 470 kts | 71° |
| 2026-05-06 17:38 | 49.64438 | 6.32162 | 36859 ft | 469 kts | 77° |
| 2026-05-06 17:39 | 49.66155 | 6.41869 | 36846 ft | 469 kts | 76° |
| 2026-05-06 17:39 | 49.67882 | 6.51596 | 36843 ft | 470 kts | 76° |
| 2026-05-06 17:40 | 49.69605 | 6.61331 | 36829 ft | 470 kts | 77° |
| 2026-05-06 17:40 | 49.71315 | 6.71096 | 36824 ft | 471 kts | 77° |
| 2026-05-06 17:41 | 49.73020 | 6.80872 | 36824 ft | 471 kts | 77° |
| 2026-05-06 17:41 | 49.74712 | 6.90660 | 36830 ft | 472 kts | 77° |
| 2026-05-06 17:42 | 49.76403 | 7.00480 | 36829 ft | 472 kts | 77° |
| 2026-05-06 17:42 | 49.78088 | 7.10302 | 36832 ft | 473 kts | 77° |
| 2026-05-06 17:43 | 49.79760 | 7.20154 | 36832 ft | 473 kts | 77° |
| 2026-05-06 17:43 | 49.81419 | 7.29940 | 36838 ft | 473 kts | 77° |
| 2026-05-06 17:44 | 49.83086 | 7.39809 | 36834 ft | 474 kts | 77° |
| 2026-05-06 17:44 | 49.84737 | 7.49695 | 36838 ft | 474 kts | 77° |
| 2026-05-06 17:45 | 49.86381 | 7.59584 | 36832 ft | 474 kts | 78° |
| 2026-05-06 17:45 | 49.88031 | 7.69565 | 36836 ft | 475 kts | 78° |
| 2026-05-06 17:46 | 49.89670 | 7.79490 | 36837 ft | 475 kts | 78° |
| 2026-05-06 17:46 | 49.91298 | 7.89429 | 36837 ft | 475 kts | 78° |
| 2026-05-06 17:47 | 49.92912 | 7.99367 | 36831 ft | 475 kts | 78° |
| 2026-05-06 17:47 | 49.94503 | 8.09251 | 36824 ft | 475 kts | 78° |
| 2026-05-06 17:48 | 49.96102 | 8.19211 | 36824 ft | 475 kts | 78° |
| 2026-05-06 17:48 | 49.97698 | 8.29187 | 36820 ft | 476 kts | 78° |
| 2026-05-06 17:49 | 49.99291 | 8.39165 | 36816 ft | 475 kts | 78° |
| 2026-05-06 17:49 | 50.00870 | 8.49150 | 36800 ft | 476 kts | 79° |
| 2026-05-06 17:50 | 50.02424 | 8.59154 | 36802 ft | 476 kts | 79° |
| 2026-05-06 17:50 | 50.03979 | 8.69181 | 36804 ft | 477 kts | 79° |
| 2026-05-06 17:51 | 50.05362 | 8.79250 | 36800 ft | 474 kts | 87° |
| 2026-05-06 17:51 | 50.05281 | 8.89416 | 36803 ft | 469 kts | 97° |
| 2026-05-06 17:52 | 50.04838 | 8.99548 | 36802 ft | 469 kts | 97° |
| 2026-05-06 17:52 | 50.04386 | 9.09683 | 36801 ft | 470 kts | 97° |
| 2026-05-06 17:53 | 50.03932 | 9.19751 | 36829 ft | 470 kts | 97° |
| 2026-05-06 17:53 | 50.03471 | 9.29912 | 36802 ft | 471 kts | 97° |
| 2026-05-06 17:54 | 50.03000 | 9.40078 | 36785 ft | 472 kts | 98° |
| 2026-05-06 17:54 | 50.02518 | 9.50274 | 36783 ft | 473 kts | 98° |
| 2026-05-06 17:55 | 50.02028 | 9.60479 | 36786 ft | 473 kts | 98° |
| 2026-05-06 17:55 | 50.01526 | 9.70678 | 36774 ft | 474 kts | 98° |
| 2026-05-06 17:56 | 50.01019 | 9.80887 | 36782 ft | 474 kts | 98° |
| 2026-05-06 17:56 | 50.00496 | 9.91113 | 36780 ft | 474 kts | 98° |
| 2026-05-06 17:57 | 49.99963 | 10.01344 | 36775 ft | 475 kts | 98° |
| 2026-05-06 17:57 | 49.99422 | 10.11567 | 36770 ft | 475 kts | 98° |
| 2026-05-06 17:58 | 49.98869 | 10.21811 | 36776 ft | 476 kts | 98° |
| 2026-05-06 17:58 | 49.98562 | 10.32101 | 36768 ft | 478 kts | 95° |
| 2026-05-06 17:59 | 49.98487 | 10.42441 | 36770 ft | 479 kts | 94° |
| 2026-05-06 17:59 | 49.98388 | 10.52780 | 36772 ft | 479 kts | 95° |
| 2026-05-06 18:00 | 49.98202 | 10.63136 | 36774 ft | 479 kts | 96° |
| 2026-05-06 18:00 | 49.97979 | 10.73488 | 36781 ft | 479 kts | 96° |
| 2026-05-06 18:01 | 49.97758 | 10.83855 | 36506 ft | 480 kts | 96° |
| 2026-05-06 18:01 | 49.97654 | 10.89025 | 36116 ft | 480 kts | 96° |
| 2026-05-06 18:01 | 49.97550 | 10.94227 | 35712 ft | 481 kts | 96° |
| 2026-05-06 18:02 | 49.97444 | 10.99433 | 35315 ft | 483 kts | 96° |
| 2026-05-06 18:02 | 49.97333 | 11.04649 | 34923 ft | 484 kts | 97° |
| 2026-05-06 18:02 | 49.97217 | 11.09874 | 34537 ft | 485 kts | 97° |
| 2026-05-06 18:02 | 49.97094 | 11.15126 | 34155 ft | 487 kts | 97° |
| 2026-05-06 18:03 | 49.96968 | 11.20384 | 33777 ft | 488 kts | 97° |
| 2026-05-06 18:03 | 49.96840 | 11.25663 | 33330 ft | 489 kts | 97° |
| 2026-05-06 18:03 | 49.96713 | 11.30950 | 32877 ft | 490 kts | 97° |
| 2026-05-06 18:03 | 49.96586 | 11.36171 | 32449 ft | 490 kts | 97° |
| 2026-05-06 18:04 | 49.96455 | 11.41456 | 32017 ft | 490 kts | 97° |
| 2026-05-06 18:04 | 49.96319 | 11.46740 | 31597 ft | 490 kts | 97° |
| 2026-05-06 18:04 | 49.96182 | 11.52019 | 31183 ft | 489 kts | 97° |
| 2026-05-06 18:04 | 49.96043 | 11.57307 | 30767 ft | 489 kts | 97° |
| 2026-05-06 18:05 | 49.95900 | 11.62590 | 30370 ft | 489 kts | 97° |
| 2026-05-06 18:05 | 49.95757 | 11.67868 | 29969 ft | 490 kts | 97° |
| 2026-05-06 18:05 | 49.95610 | 11.73161 | 29535 ft | 490 kts | 97° |
| 2026-05-06 18:05 | 49.95464 | 11.78445 | 29074 ft | 490 kts | 96° |
| 2026-05-06 18:06 | 49.95315 | 11.83733 | 28621 ft | 491 kts | 96° |
| 2026-05-06 18:06 | 49.95161 | 11.89044 | 28173 ft | 492 kts | 96° |
| 2026-05-06 18:06 | 49.95002 | 11.94339 | 27734 ft | 493 kts | 96° |
| 2026-05-06 18:06 | 49.94839 | 11.99670 | 27303 ft | 494 kts | 96° |
| 2026-05-06 18:07 | 49.94675 | 12.05009 | 26877 ft | 494 kts | 96° |
| 2026-05-06 18:07 | 49.94510 | 12.10334 | 26460 ft | 495 kts | 96° |
| 2026-05-06 18:07 | 49.94341 | 12.15678 | 26047 ft | 496 kts | 96° |
| 2026-05-06 18:07 | 49.94167 | 12.21037 | 25636 ft | 496 kts | 96° |
| 2026-05-06 18:08 | 49.93990 | 12.26383 | 25236 ft | 497 kts | 96° |
| 2026-05-06 18:08 | 49.93811 | 12.31742 | 24863 ft | 497 kts | 96° |
| 2026-05-06 18:08 | 49.93634 | 12.37092 | 24699 ft | 497 kts | 96° |
| 2026-05-06 18:08 | 49.93471 | 12.42465 | 24746 ft | 498 kts | 95° |
| 2026-05-06 18:09 | 49.93321 | 12.47842 | 24739 ft | 498 kts | 95° |
| 2026-05-06 18:09 | 49.93180 | 12.53210 | 24740 ft | 498 kts | 95° |
| 2026-05-06 18:09 | 49.93037 | 12.58591 | 24747 ft | 498 kts | 95° |
| 2026-05-06 18:09 | 49.92890 | 12.63954 | 24748 ft | 498 kts | 96° |
| 2026-05-06 18:10 | 49.92736 | 12.69326 | 24658 ft | 499 kts | 96° |
| 2026-05-06 18:10 | 49.92577 | 12.74644 | 24415 ft | 499 kts | 96° |
| 2026-05-06 18:10 | 49.92415 | 12.80013 | 24181 ft | 498 kts | 96° |
| 2026-05-06 18:10 | 49.92248 | 12.85372 | 23884 ft | 496 kts | 96° |
| 2026-05-06 18:11 | 49.92080 | 12.90702 | 22699 ft | 495 kts | 96° |
| 2026-05-06 18:11 | 49.91964 | 12.94291 | 22079 ft | 492 kts | 96° |
| 2026-05-06 18:11 | 49.91739 | 13.01219 | 21046 ft | 480 kts | 96° |
| 2026-05-06 18:11 | 49.91566 | 13.06362 | 20189 ft | 474 kts | 96° |
| 2026-05-06 18:12 | 49.91390 | 13.11442 | 19388 ft | 469 kts | 96° |
| 2026-05-06 18:12 | 49.91214 | 13.16457 | 18623 ft | 464 kts | 96° |
| 2026-05-06 18:12 | 49.91034 | 13.21434 | 17853 ft | 459 kts | 96° |
| 2026-05-06 18:12 | 49.90855 | 13.26355 | 17016 ft | 454 kts | 96° |
| 2026-05-06 18:13 | 49.90678 | 13.31226 | 16235 ft | 450 kts | 95° |
| 2026-05-06 18:13 | 49.90506 | 13.36046 | 15478 ft | 445 kts | 95° |
| 2026-05-06 18:13 | 49.90337 | 13.40811 | 14740 ft | 441 kts | 95° |
| 2026-05-06 18:13 | 49.90166 | 13.45533 | 14001 ft | 436 kts | 95° |
| 2026-05-06 18:14 | 49.90053 | 13.50214 | 13244 ft | 433 kts | 90° |
| 2026-05-06 18:14 | 49.90457 | 13.54803 | 12850 ft | 428 kts | 77° |
| 2026-05-06 18:14 | 49.91420 | 13.59134 | 12709 ft | 417 kts | 65° |
| 2026-05-06 18:14 | 49.92310 | 13.61707 | 12747 ft | 403 kts | 58° |
| 2026-05-06 18:15 | 49.93771 | 13.65287 | 12748 ft | 383 kts | 58° |
| 2026-05-06 18:15 | 49.95169 | 13.68695 | 12749 ft | 364 kts | 58° |
| 2026-05-06 18:15 | 49.95594 | 13.69731 | 12748 ft | 359 kts | 58° |
| 2026-05-06 18:15 | 49.96563 | 13.72104 | 12750 ft | 347 kts | 58° |
| 2026-05-06 18:16 | 49.97827 | 13.75198 | 12748 ft | 332 kts | 58° |
| 2026-05-06 18:16 | 49.99039 | 13.78158 | 12747 ft | 318 kts | 58° |
| 2026-05-06 18:16 | 50.00204 | 13.81001 | 12747 ft | 305 kts | 58° |
| 2026-05-06 18:16 | 50.01349 | 13.83803 | 12349 ft | 309 kts | 58° |
| 2026-05-06 18:17 | 50.02488 | 13.86579 | 12217 ft | 300 kts | 56° |
| 2026-05-06 18:17 | 50.03930 | 13.88843 | 12031 ft | 292 kts | 29° |
| 2026-05-06 18:17 | 50.05785 | 13.89921 | 11826 ft | 280 kts | 9° |
| 2026-05-06 18:17 | 50.07687 | 13.90435 | 11351 ft | 276 kts | 5° |
| 2026-05-06 18:18 | 50.09580 | 13.90872 | 10882 ft | 274 kts | 5° |
| 2026-05-06 18:18 | 50.11466 | 13.91283 | 10402 ft | 272 kts | 2° |
| 2026-05-06 18:18 | 50.13290 | 13.90961 | 9923 ft | 260 kts | 333° |
| 2026-05-06 18:18 | 50.14797 | 13.89505 | 9409 ft | 254 kts | 317° |
| 2026-05-06 18:19 | 50.16157 | 13.87758 | 8878 ft | 252 kts | 315° |
| 2026-05-06 18:19 | 50.17482 | 13.85993 | 8734 ft | 252 kts | 315° |
| 2026-05-06 18:19 | 50.18815 | 13.84199 | 8749 ft | 255 kts | 315° |
| 2026-05-06 18:19 | 50.20145 | 13.82403 | 8499 ft | 251 kts | 315° |
| 2026-05-06 18:20 | 50.21460 | 13.80621 | 7945 ft | 250 kts | 315° |
| 2026-05-06 18:20 | 50.22873 | 13.79059 | 7378 ft | 252 kts | 336° |
| 2026-05-06 18:20 | 50.24600 | 13.78709 | 6930 ft | 255 kts | 8° |
| 2026-05-06 18:20 | 50.26193 | 13.79803 | 6743 ft | 252 kts | 41° |
| 2026-05-06 18:21 | 50.27193 | 13.81996 | 6747 ft | 256 kts | 72° |
| 2026-05-06 18:21 | 50.27440 | 13.84734 | 6754 ft | 256 kts | 92° |
| 2026-05-06 18:21 | 50.27399 | 13.87511 | 6542 ft | 254 kts | 95° |
| 2026-05-06 18:21 | 50.27078 | 13.90174 | 6393 ft | 250 kts | 115° |
| 2026-05-06 18:22 | 50.26185 | 13.92467 | 6132 ft | 247 kts | 129° |
| 2026-05-06 18:22 | 50.25155 | 13.94614 | 5828 ft | 247 kts | 129° |
| 2026-05-06 18:22 | 50.24132 | 13.96751 | 5491 ft | 245 kts | 129° |
| 2026-05-06 18:22 | 50.23118 | 13.98874 | 5165 ft | 243 kts | 128° |
| 2026-05-06 18:23 | 50.22114 | 14.00976 | 4851 ft | 240 kts | 128° |
| 2026-05-06 18:23 | 50.21115 | 14.03065 | 4534 ft | 239 kts | 128° |
| 2026-05-06 18:23 | 50.20126 | 14.05132 | 4211 ft | 237 kts | 128° |
| 2026-05-06 18:23 | 50.19142 | 14.07184 | 3895 ft | 234 kts | 128° |
| 2026-05-06 18:24 | 50.18188 | 14.09174 | 3586 ft | 226 kts | 128° |
| 2026-05-06 18:24 | 50.17267 | 14.11095 | 3291 ft | 211 kts | 127° |
| 2026-05-06 18:24 | 50.16424 | 14.12849 | 3050 ft | 192 kts | 127° |
| 2026-05-06 18:24 | 50.15658 | 14.14444 | 2816 ft | 174 kts | 126° |
| 2026-05-06 18:25 | 50.14972 | 14.15871 | 2571 ft | 156 kts | 126° |
| 2026-05-06 18:25 | 50.14343 | 14.17179 | 2366 ft | 147 kts | 126° |
| 2026-05-06 18:25 | 50.13739 | 14.18433 | 2168 ft | 143 kts | 125° |
| 2026-05-06 18:25 | 50.13148 | 14.19661 | 1985 ft | 140 kts | 125° |
| 2026-05-06 18:26 | 50.12566 | 14.20868 | 1793 ft | 139 kts | 125° |
| 2026-05-06 18:26 | 50.11990 | 14.22066 | 1612 ft | 137 kts | 125° |
| 2026-05-06 18:26 | 50.11418 | 14.23251 | 1421 ft | 136 kts | 125° |
| 2026-05-06 18:26 | 50.10852 | 14.24425 | 1231 ft | 134 kts | 124° |
| 2026-05-06 18:27 | 50.10322 | 14.25529 | 1182 ft | 108 kts | 128° |
| 2026-05-06 18:27 | 50.09970 | 14.26262 | 1197 ft | 52 kts | 126° |
| 2026-05-06 18:27 | 50.09876 | 14.26588 | 1207 ft | 25 kts | 89° |
| 2026-05-06 18:27 | 50.09888 | 14.26794 | 1206 ft | 13 kts | 80° |
| 2026-05-06 18:28 | 50.09893 | 14.26842 | 1206 ft | 0 kts | 80° |
| 2026-05-06 18:29 | 50.09895 | 14.26863 | 1206 ft | 4 kts | 81° |
| 2026-05-06 18:29 | 50.09895 | 14.26866 | 1206 ft | 0 kts | 81° |
| 2026-05-06 18:30 | 50.09901 | 14.26919 | 1206 ft | 9 kts | 81° |
| 2026-05-06 18:30 | 50.09911 | 14.27036 | 1204 ft | 13 kts | 83° |
| 2026-05-06 18:30 | 50.09948 | 14.27122 | 1199 ft | 8 kts | 324° |
| 2026-05-06 18:30 | 50.10001 | 14.27010 | 1196 ft | 17 kts | 307° |
| 2026-05-06 18:31 | 50.10066 | 14.26875 | 1189 ft | 19 kts | 308° |
| 2026-05-06 18:31 | 50.10155 | 14.26690 | 1176 ft | 21 kts | 307° |
| 2026-05-06 18:31 | 50.10226 | 14.26544 | 1173 ft | 6 kts | 307° |
| 2026-05-06 18:31 | 50.10291 | 14.26562 | 1172 ft | 16 kts | 33° |
| 2026-05-06 18:32 | 50.10351 | 14.26654 | 1173 ft | 8 kts | 97° |
| 2026-05-06 18:32 | 50.10345 | 14.26725 | 1170 ft | 6 kts | 36° |
| 2026-05-06 18:32 | 50.10367 | 14.26744 | 1171 ft | 0 kts | 31° |
| 2026-05-06 18:32 | 50.10368 | 14.26745 | 1171 ft | 0 kts | 32° |